Woodland, Iowa
Current Conditions -  °F | °C
As of 10:53 AM on Thursday 18 Dec 2014 (Local Time) from KLWD Reporting Station
Light Snow Light Snow  
Wind Chill: 27°   Ceiling: 700
Heat Index: 27°   Visibility: 3mi
Dew Point: 23°   Wind: 3mph
Humidity: 85%   Direction: 80°E
Pressure: 30.26"   Gusts: NA
Location:  40.7175°N, 93.6143°W
Report Text: KLWD 181653Z AUTO 08003KT 3SM -SN BR BKN007 OVC028 M03/M05 A3026 RMK AO2 SLP262 P0001 T10281050
Loading
Personal Weather Stations






























Interactive Weather Map New forecast layout! Learn more

10-Day Weather Forecast

Advertisements
Track Severe Weather on mobile